createdAt,value
2023-12-29T00:00:06.371Z,212.9
2023-12-29T00:05:08.591Z,213.4
2023-12-29T00:10:06.663Z,214.1
2023-12-29T00:15:06.605Z,235.3
2023-12-29T00:20:06.417Z,240.2
2023-12-29T00:25:06.631Z,227.2
2023-12-29T00:30:06.423Z,190.2
2023-12-29T00:35:06.635Z,150.8
2023-12-29T00:40:06.405Z,154.9
2023-12-29T00:45:06.113Z,172.4
2023-12-29T00:50:06.803Z,141.2
2023-12-29T00:55:06.419Z,117.6
2023-12-29T01:00:06.296Z,119.7
2023-12-29T01:05:06.672Z,121.1
2023-12-29T01:10:06.449Z,127.3
2023-12-29T01:15:06.157Z,107.6
2023-12-29T01:20:06.972Z,129.9
2023-12-29T01:25:06.700Z,120
2023-12-29T01:30:06.572Z,168.2
2023-12-29T01:35:06.361Z,159.4
2023-12-29T01:40:06.187Z,133.3
2023-12-29T01:45:06.732Z,102.9
2023-12-29T01:50:06.242Z,85.5
2023-12-29T01:55:06.199Z,103.9
2023-12-29T02:00:06.482Z,93.5
2023-12-29T02:05:07.004Z,86.2
2023-12-29T02:10:06.154Z,75.3
2023-12-29T02:15:06.393Z,97.1
2023-12-29T02:20:06.603Z,77.2
2023-12-29T02:25:06.761Z,87.1
2023-12-29T02:30:06.914Z,86.4
2023-12-29T02:35:06.090Z,83
2023-12-29T02:40:06.503Z,58.1
2023-12-29T02:45:06.622Z,58.8
2023-12-29T02:50:06.514Z,52.8
2023-12-29T02:55:06.636Z,72.8
2023-12-29T03:00:06.697Z,59.4
2023-12-29T03:05:07.092Z,65.4
2023-12-29T03:10:06.199Z,72.6
2023-12-29T03:15:06.459Z,44.5
2023-12-29T03:20:06.707Z,37.9
2023-12-29T03:25:06.116Z,34.9
2023-12-29T03:30:07.069Z,35.9
2023-12-29T03:35:06.331Z,33.7
2023-12-29T03:40:06.675Z,32.6
2023-12-29T03:45:06.848Z,26.8
2023-12-29T03:50:07.078Z,24.3
2023-12-29T03:55:06.809Z,37.1
2023-12-29T04:00:06.784Z,23.7
2023-12-29T04:05:06.654Z,41.3
2023-12-29T04:10:06.798Z,37.2
2023-12-29T04:15:06.770Z,33.3
2023-12-29T04:20:07.047Z,52.6
2023-12-29T04:25:06.808Z,50.2
2023-12-29T04:30:06.812Z,38.2
2023-12-29T04:35:06.704Z,48.8
2023-12-29T04:40:06.555Z,69.5
2023-12-29T04:45:06.633Z,47.7
2023-12-29T04:50:06.552Z,53.6
2023-12-29T04:55:06.452Z,48.6
2023-12-29T05:00:06.225Z,51.1
2023-12-29T05:05:06.603Z,55.3
2023-12-29T05:10:06.408Z,49.1
2023-12-29T05:15:06.194Z,36.4
2023-12-29T05:20:06.993Z,48.2
2023-12-29T05:25:06.724Z,39.5
2023-12-29T05:30:06.606Z,60.7
2023-12-29T05:35:06.362Z,86.4
2023-12-29T05:40:07.084Z,52.8
2023-12-29T05:45:06.882Z,73.6
2023-12-29T05:50:06.636Z,58.5
2023-12-29T05:55:06.337Z,52.8
2023-12-29T06:00:07.045Z,69.5
2023-12-29T06:05:06.423Z,89.1
2023-12-29T06:10:06.208Z,103.5
2023-12-29T06:15:06.930Z,90.9
2023-12-29T06:20:06.551Z,89.2
2023-12-29T06:25:06.270Z,98.4
2023-12-29T06:30:06.457Z,108.6
2023-12-29T06:35:06.134Z,74.5
2023-12-29T06:40:06.754Z,70.2
2023-12-29T06:45:06.556Z,56.6
2023-12-29T06:50:06.313Z,68.5
2023-12-29T06:55:06.155Z,84.8
2023-12-29T07:00:06.945Z,40.9
2023-12-29T07:05:06.390Z,39.2
2023-12-29T07:10:06.087Z,64
2023-12-29T07:15:06.975Z,89.1
2023-12-29T07:20:06.713Z,84.5
2023-12-29T07:25:06.419Z,83
2023-12-29T07:30:06.075Z,102.8
2023-12-29T07:35:06.783Z,93.2
2023-12-29T07:40:06.664Z,70.9
2023-12-29T07:45:06.633Z,84.4
2023-12-29T07:50:06.472Z,133.3
2023-12-29T07:55:06.142Z,167
2023-12-29T08:00:06.673Z,142.5
2023-12-29T08:05:06.122Z,125.7
2023-12-29T08:10:06.942Z,122.9
2023-12-29T08:15:06.604Z,81.1
2023-12-29T08:20:06.315Z,95.2
2023-12-29T08:25:06.877Z,59
2023-12-29T08:30:06.652Z,69.7
2023-12-29T08:35:06.323Z,66.5
2023-12-29T08:40:06.261Z,69.1
2023-12-29T08:45:07.080Z,59.5
2023-12-29T08:50:06.700Z,46.9
2023-12-29T08:55:06.448Z,79
2023-12-29T09:00:06.234Z,90.7
2023-12-29T09:05:06.543Z,94.5
2023-12-29T09:10:06.323Z,101.9
2023-12-29T09:15:06.496Z,105.5
2023-12-29T09:20:06.133Z,104.5
2023-12-29T09:25:06.737Z,99.6
2023-12-29T09:30:06.482Z,135.8
2023-12-29T09:35:06.172Z,102.9
2023-12-29T09:40:06.871Z,92.6
2023-12-29T09:45:06.525Z,72.7
2023-12-29T09:50:06.723Z,79.9
2023-12-29T09:55:06.625Z,97.4
2023-12-29T10:00:06.503Z,61.5
2023-12-29T10:05:06.859Z,58.5
2023-12-29T10:10:06.630Z,72.3
2023-12-29T10:15:06.998Z,56.7
2023-12-29T10:20:06.222Z,60.5
2023-12-29T10:25:06.583Z,47.7
2023-12-29T10:30:06.339Z,43.2
2023-12-29T10:35:06.603Z,46
2023-12-29T10:40:06.523Z,45.1
2023-12-29T10:45:06.379Z,53.1
2023-12-29T10:50:06.061Z,52.8
2023-12-29T10:55:07.048Z,37.6
2023-12-29T11:00:06.822Z,36
2023-12-29T11:05:06.171Z,44.6
2023-12-29T11:10:06.980Z,47
2023-12-29T11:15:06.676Z,49
2023-12-29T11:20:06.452Z,46.9
2023-12-29T11:25:06.162Z,49.1
2023-12-29T11:30:06.807Z,46.9
2023-12-29T11:35:06.444Z,38.4
2023-12-29T11:40:06.601Z,39.2
2023-12-29T11:45:07.059Z,41.8
2023-12-29T11:50:06.799Z,52.2
2023-12-29T11:55:06.542Z,49.1
2023-12-29T12:00:06.541Z,46.1
2023-12-29T12:05:07.027Z,46.1
2023-12-29T12:10:06.173Z,45.7
2023-12-29T12:15:07.044Z,50.3
2023-12-29T12:20:06.865Z,57.9
2023-12-29T12:25:06.583Z,61
2023-12-29T12:30:06.328Z,40.7
2023-12-29T12:35:06.139Z,43.1
2023-12-29T12:40:06.770Z,30.6
2023-12-29T12:45:06.791Z,43.4
2023-12-29T12:50:06.479Z,40.9
2023-12-29T12:55:07.012Z,27.2
2023-12-29T13:00:06.648Z,46.1
2023-12-29T13:05:06.607Z,27.4
2023-12-29T13:10:06.662Z,28.2
2023-12-29T13:15:06.583Z,39.5
2023-12-29T13:20:06.433Z,37.6
2023-12-29T13:25:06.502Z,61.5
2023-12-29T13:30:07.047Z,41
2023-12-29T13:35:06.939Z,37.7
2023-12-29T13:40:06.795Z,36.6
2023-12-29T13:45:07.050Z,47.7
2023-12-29T13:50:06.735Z,49
2023-12-29T13:55:06.554Z,50.8
2023-12-29T14:00:06.332Z,39.5
2023-12-29T14:05:06.713Z,74.9
2023-12-29T14:10:06.479Z,53.1
2023-12-29T14:15:06.173Z,57.4
2023-12-29T14:20:06.744Z,40.8
2023-12-29T14:25:06.518Z,50.8
2023-12-29T14:30:06.190Z,61.7
2023-12-29T14:35:06.903Z,74
2023-12-29T14:40:06.679Z,75.5
2023-12-29T14:45:06.394Z,81.4
2023-12-29T14:50:07.036Z,72.4
2023-12-29T14:55:06.609Z,88.9
2023-12-29T15:00:06.297Z,93.7
2023-12-29T15:05:06.680Z,152.1
2023-12-29T15:10:06.457Z,185.6
2023-12-29T15:15:06.220Z,214.2
2023-12-29T15:20:06.948Z,204.6
2023-12-29T15:25:06.691Z,181
2023-12-29T15:30:06.390Z,190
2023-12-29T15:35:07.050Z,218.5
2023-12-29T15:40:06.740Z,199.6
2023-12-29T15:45:06.401Z,163.5
2023-12-29T15:50:06.299Z,155.1
2023-12-29T15:55:07.050Z,196.6
2023-12-29T16:00:06.782Z,216.2
2023-12-29T16:05:06.255Z,234.5
2023-12-29T16:10:06.961Z,201.1
2023-12-29T16:15:06.662Z,158.3
2023-12-29T16:20:06.333Z,217.1
2023-12-29T16:25:06.146Z,145.6
2023-12-29T16:30:06.989Z,160.8
2023-12-29T16:35:06.762Z,134.7
2023-12-29T16:40:06.431Z,146.3
2023-12-29T16:45:07.039Z,114.7
2023-12-29T16:50:06.915Z,127.6
2023-12-29T16:55:06.620Z,84
2023-12-29T17:00:06.441Z,82.5
2023-12-29T17:05:06.101Z,125.4
2023-12-29T17:10:06.952Z,161.9
2023-12-29T17:15:06.622Z,88.2
2023-12-29T17:20:06.412Z,84.4
2023-12-29T17:25:06.209Z,115
2023-12-29T17:30:06.356Z,129.6
2023-12-29T17:35:07.097Z,148.5
2023-12-29T17:40:06.887Z,163.2
2023-12-29T17:45:06.712Z,167.6
2023-12-29T17:50:06.581Z,164.4
2023-12-29T17:55:06.162Z,154.1
2023-12-29T18:00:07.096Z,145
2023-12-29T18:05:06.494Z,125.7
2023-12-29T18:10:06.293Z,67.6
2023-12-29T18:15:06.121Z,61.4
2023-12-29T18:20:07.024Z,78.9
2023-12-29T18:25:06.894Z,97
2023-12-29T18:30:06.410Z,117.1
2023-12-29T18:35:06.198Z,165.7
2023-12-29T18:40:06.980Z,169.3
2023-12-29T18:45:06.690Z,105.2
2023-12-29T18:50:06.539Z,114.1
2023-12-29T18:55:06.284Z,108.4
2023-12-29T19:00:07.038Z,148.6
2023-12-29T19:05:06.290Z,198.7
2023-12-29T19:10:06.988Z,186.2
2023-12-29T19:15:06.716Z,147.5
2023-12-29T19:20:06.341Z,86.6
2023-12-29T19:25:07.017Z,83.1
2023-12-29T19:30:06.655Z,103.5
2023-12-29T19:35:06.294Z,158.5
2023-12-29T19:40:06.555Z,127.5
2023-12-29T19:45:06.231Z,138.6
2023-12-29T19:50:06.932Z,151.7
2023-12-29T19:55:06.641Z,96.2
2023-12-29T20:00:06.400Z,87.4
2023-12-29T20:05:06.889Z,74
2023-12-29T20:10:06.628Z,62.7
2023-12-29T20:15:06.288Z,73.3
2023-12-29T20:20:06.143Z,68.6
2023-12-29T20:25:07.074Z,65.4
2023-12-29T20:30:06.791Z,71.2
2023-12-29T20:35:06.566Z,102.3
2023-12-29T20:40:06.257Z,134.3
2023-12-29T20:45:07.100Z,133.9
2023-12-29T20:50:06.909Z,126.1
2023-12-29T20:55:06.815Z,151.3
2023-12-29T21:00:06.760Z,151.8
2023-12-29T21:05:06.276Z,115.5
2023-12-29T21:10:07.073Z,116.6
2023-12-29T21:15:06.999Z,92.4
2023-12-29T21:20:06.871Z,90.7
2023-12-29T21:25:06.717Z,92.2
2023-12-29T21:30:06.642Z,86.5
2023-12-29T21:35:06.407Z,119.1
2023-12-29T21:40:06.228Z,141.5
2023-12-29T21:45:06.973Z,138
2023-12-29T21:50:06.872Z,132.8
2023-12-29T21:55:06.431Z,104.1
2023-12-29T22:00:06.296Z,93.6
2023-12-29T22:05:06.722Z,70.6
2023-12-29T22:10:06.406Z,73.1
2023-12-29T22:15:06.140Z,100.2
2023-12-29T22:20:07.031Z,165
2023-12-29T22:25:06.784Z,147.5
2023-12-29T22:30:06.445Z,158.7
2023-12-29T22:35:06.152Z,117.1
2023-12-29T22:40:06.891Z,111.4
2023-12-29T22:45:06.578Z,108.6
2023-12-29T22:50:06.323Z,92.2
2023-12-29T22:55:07.061Z,100.2
2023-12-29T23:00:06.855Z,67.4
2023-12-29T23:05:06.237Z,99.3
2023-12-29T23:10:06.114Z,120.5
2023-12-29T23:15:06.752Z,106.6
2023-12-29T23:20:06.394Z,118
2023-12-29T23:25:06.160Z,108.8
2023-12-29T23:30:06.805Z,98.9
2023-12-29T23:35:06.730Z,80.9
2023-12-29T23:40:06.576Z,67.5
2023-12-29T23:45:06.233Z,52.7
2023-12-29T23:50:06.932Z,73.8
2023-12-29T23:55:06.510Z,90.7
